createdAt,value
2023-10-18T00:01:33.090Z,70.68
2023-10-18T00:04:00.191Z,70.89
2023-10-18T00:06:29.962Z,70.69
2023-10-18T00:08:56.986Z,70.35
2023-10-18T00:11:24.224Z,70.34
2023-10-18T00:13:51.222Z,70.28
2023-10-18T00:16:18.441Z,70.73
2023-10-18T00:18:45.562Z,70.45
2023-10-18T00:21:12.640Z,70.41
2023-10-18T00:23:42.241Z,70.31
2023-10-18T00:26:10.563Z,70.50
2023-10-18T00:28:38.119Z,70.66
2023-10-18T00:31:12.949Z,70.79
2023-10-18T00:33:40.174Z,71.21
2023-10-18T00:36:07.867Z,71.54
2023-10-18T00:38:34.861Z,71.51
2023-10-18T00:41:04.500Z,71.78
2023-10-18T00:43:31.568Z,71.94
2023-10-18T00:45:58.809Z,72.20
2023-10-18T00:48:27.926Z,72.31
2023-10-18T00:50:58.155Z,72.11
2023-10-18T00:53:26.242Z,72.15
2023-10-18T00:55:56.267Z,72.03
2023-10-18T00:58:26.375Z,72.20
2023-10-18T01:00:54.420Z,71.62
2023-10-18T01:03:21.620Z,71.82
2023-10-18T01:05:59.542Z,71.64
2023-10-18T01:08:26.584Z,72.01
2023-10-18T01:10:53.586Z,71.99
2023-10-18T01:13:20.585Z,72.26
2023-10-18T01:15:50.215Z,71.91
2023-10-18T01:18:17.253Z,71.97
2023-10-18T01:20:44.221Z,72.19
2023-10-18T01:23:11.186Z,71.77
2023-10-18T01:25:40.764Z,71.58
2023-10-18T01:28:07.742Z,71.62
2023-10-18T01:30:34.928Z,72.23
2023-10-18T01:33:02.096Z,71.75
2023-10-18T01:35:29.141Z,71.46
2023-10-18T01:37:56.160Z,71.47
2023-10-18T01:40:23.213Z,71.42
2023-10-18T01:42:53.789Z,71.17
2023-10-18T01:45:20.803Z,71.21
2023-10-18T01:50:19.722Z,71.78
2023-10-18T01:52:48.813Z,71.58
2023-10-18T01:55:16.408Z,71.58
2023-10-18T01:57:43.496Z,71.66
2023-10-18T02:00:14.163Z,71.85
2023-10-18T02:02:41.223Z,71.89
2023-10-18T02:05:08.939Z,72.04
2023-10-18T02:07:35.950Z,71.62
2023-10-18T02:10:03.048Z,71.51
2023-10-18T02:12:30.137Z,71.50
2023-10-18T02:14:57.185Z,71.79
2023-10-18T02:17:26.905Z,71.98
2023-10-18T02:19:54.048Z,71.85
2023-10-18T02:22:21.162Z,72.10
2023-10-18T02:24:48.213Z,71.96
2023-10-18T02:27:15.254Z,72.41
2023-10-18T02:29:42.258Z,71.96
2023-10-18T02:32:09.695Z,72.22
2023-10-18T02:34:39.316Z,72.25
2023-10-18T02:37:06.494Z,72.06
2023-10-18T02:39:33.614Z,72.28
2023-10-18T02:42:00.741Z,72.65
2023-10-18T02:44:27.734Z,72.37
2023-10-18T02:46:56.455Z,72.52
2023-10-18T02:49:23.718Z,72.29
2023-10-18T02:51:53.296Z,72.41
2023-10-18T02:54:20.657Z,72.71
2023-10-18T02:56:48.452Z,72.14
2023-10-18T02:59:15.460Z,72.29
2023-10-18T03:01:42.560Z,72.32
2023-10-18T03:04:09.902Z,71.98
2023-10-18T03:06:37.473Z,72.35
2023-10-18T03:09:07.201Z,72.13
2023-10-18T03:11:34.190Z,73.04
2023-10-18T03:14:01.189Z,73.46
2023-10-18T03:16:29.152Z,73.21
2023-10-18T03:18:56.397Z,73.01
2023-10-18T03:21:23.482Z,72.74
2023-10-18T03:23:51.157Z,73.27
2023-10-18T03:26:21.686Z,73.12
2023-10-18T03:28:48.860Z,72.88
2023-10-18T03:31:15.931Z,72.66
2023-10-18T03:33:42.957Z,72.88
2023-10-18T03:36:20.152Z,72.60
2023-10-18T03:38:48.911Z,73.04
2023-10-18T03:41:20.289Z,72.86
2023-10-18T03:43:47.391Z,72.51
2023-10-18T03:46:14.707Z,73.14
2023-10-18T03:48:42.246Z,73.38
2023-10-18T03:51:09.321Z,72.93
2023-10-18T03:53:37.054Z,72.93
2023-10-18T03:56:04.279Z,73.46
2023-10-18T03:58:33.892Z,73.45
2023-10-18T04:01:00.890Z,73.59
2023-10-18T04:03:28.117Z,73.75
2023-10-18T04:05:55.080Z,74.07
2023-10-18T04:08:22.081Z,73.16
2023-10-18T04:10:57.679Z,73.51
2023-10-18T04:13:24.739Z,73.84
2023-10-18T04:15:54.286Z,74.21
2023-10-18T04:18:21.300Z,74.21
2023-10-18T04:20:48.276Z,74.60
2023-10-18T04:23:15.984Z,74.41
2023-10-18T04:25:43.385Z,74.32
2023-10-18T04:28:10.381Z,73.49
2023-10-18T04:30:37.448Z,73.43
2023-10-18T04:33:07.253Z,73.32
2023-10-18T04:35:34.416Z,73.03
2023-10-18T04:38:01.497Z,73.08
2023-10-18T04:40:28.513Z,73.54
2023-10-18T04:42:56.275Z,73.10
2023-10-18T04:45:23.738Z,73.77
2023-10-18T04:47:51.075Z,73.41
2023-10-18T04:50:21.257Z,73.25
2023-10-18T04:52:48.232Z,73.31
2023-10-18T04:55:15.797Z,73.78
2023-10-18T04:57:43.478Z,73.99
2023-10-18T05:00:12.088Z,74.11
2023-10-18T05:02:39.145Z,73.68
2023-10-18T05:05:07.819Z,74.04
2023-10-18T05:07:37.460Z,73.86
2023-10-18T05:10:06.968Z,73.62
2023-10-18T05:12:33.947Z,73.77
2023-10-18T05:15:00.963Z,73.41
2023-10-18T05:17:28.584Z,73.20
2023-10-18T05:19:55.612Z,72.90
2023-10-18T05:22:23.043Z,72.64
2023-10-18T05:24:56.098Z,73.45
2023-10-18T05:27:23.811Z,74.05
2023-10-18T05:29:51.060Z,74.09
2023-10-18T05:32:18.070Z,73.96
2023-10-18T05:34:45.942Z,73.82
2023-10-18T05:37:12.974Z,74.03
2023-10-18T05:39:40.021Z,74.32
2023-10-18T05:42:09.599Z,74.05
2023-10-18T05:44:36.796Z,73.80
2023-10-18T05:47:03.859Z,73.95
2023-10-18T05:49:31.185Z,73.99
2023-10-18T05:51:58.318Z,73.52
2023-10-18T05:54:25.912Z,73.60
2023-10-18T05:56:53.099Z,73.60
2023-10-18T05:59:23.087Z,73.67
2023-10-18T06:01:51.971Z,73.76
2023-10-18T06:04:19.163Z,73.64
2023-10-18T06:06:46.320Z,73.24
2023-10-18T06:09:13.347Z,73.23
2023-10-18T06:11:40.396Z,73.64
2023-10-18T06:14:07.581Z,73.57
2023-10-18T06:16:37.410Z,73.22
2023-10-18T06:19:05.242Z,72.58
2023-10-18T06:21:32.245Z,72.08
2023-10-18T06:23:59.220Z,72.07
2023-10-18T06:26:26.436Z,71.78
2023-10-18T06:28:53.416Z,71.16
2023-10-18T06:31:23.253Z,70.87
2023-10-18T06:33:53.208Z,70.97
2023-10-18T06:36:20.289Z,71.39
2023-10-18T06:38:49.933Z,71.09
2023-10-18T06:41:17.444Z,70.78
2023-10-18T06:43:44.458Z,71.18
2023-10-18T06:46:15.566Z,71.12
2023-10-18T06:48:43.541Z,70.69
2023-10-18T06:51:15.822Z,70.58
2023-10-18T06:53:42.867Z,70.43
2023-10-18T06:56:09.825Z,70.06
2023-10-18T06:58:36.858Z,70.65
2023-10-18T07:01:06.007Z,70.23
2023-10-18T07:03:33.227Z,69.92
2023-10-18T07:06:00.460Z,70.08
2023-10-18T07:08:30.102Z,69.49
2023-10-18T07:11:07.552Z,69.05
2023-10-18T07:13:44.430Z,69.07
2023-10-18T07:16:11.501Z,69.18
2023-10-18T07:18:38.582Z,68.73
2023-10-18T07:21:06.646Z,68.15
2023-10-18T07:23:37.484Z,68.07
2023-10-18T07:26:09.048Z,67.75
2023-10-18T07:28:36.372Z,67.39
2023-10-18T07:31:04.411Z,67.33
2023-10-18T07:33:31.451Z,67.25
2023-10-18T07:35:58.406Z,67.38
2023-10-18T07:38:25.409Z,67.86
2023-10-18T07:40:59.475Z,68.11
2023-10-18T07:43:26.723Z,68.12
2023-10-18T07:45:54.173Z,68.17
2023-10-18T07:48:21.521Z,67.62
2023-10-18T07:50:48.517Z,66.95
2023-10-18T07:53:15.560Z,67.21
2023-10-18T07:55:42.611Z,67.27
2023-10-18T07:58:12.328Z,67.17
2023-10-18T08:00:39.351Z,67.23
2023-10-18T08:03:06.506Z,66.74
2023-10-18T08:05:33.756Z,66.44
2023-10-18T08:08:00.918Z,66.63
2023-10-18T08:10:27.994Z,66.46
2023-10-18T08:12:55.213Z,66.25
2023-10-18T08:15:25.897Z,66.23
2023-10-18T08:17:52.867Z,66.54
2023-10-18T08:20:19.940Z,66.83
2023-10-18T08:22:47.865Z,65.83
2023-10-18T08:25:15.700Z,65.93
2023-10-18T08:27:42.664Z,65.83
2023-10-18T08:30:10.607Z,66.02
2023-10-18T08:32:40.219Z,65.58
2023-10-18T08:35:08.225Z,65.99
2023-10-18T08:37:35.340Z,67.21
2023-10-18T08:40:02.377Z,66.28
2023-10-18T08:42:34.195Z,66.12
2023-10-18T08:45:02.472Z,66.77
2023-10-18T08:47:31.695Z,65.91
2023-10-18T08:50:01.906Z,64.58
2023-10-18T08:52:33.589Z,64.45
2023-10-18T08:55:01.575Z,65.01
2023-10-18T08:57:28.808Z,64.07
2023-10-18T08:59:56.489Z,63.86
2023-10-18T09:02:23.633Z,64.16
2023-10-18T09:04:54.728Z,63.45
2023-10-18T09:07:28.122Z,62.93
2023-10-18T09:09:55.433Z,62.78
2023-10-18T09:12:25.515Z,62.25
2023-10-18T09:14:52.868Z,62.16
2023-10-18T09:17:19.901Z,61.21
2023-10-18T09:19:48.274Z,60.91
2023-10-18T09:22:15.593Z,60.81
2023-10-18T09:24:45.402Z,61.17
2023-10-18T09:27:12.681Z,61.34
2023-10-18T09:29:39.820Z,60.92
2023-10-18T09:32:07.124Z,60.73
2023-10-18T09:34:34.207Z,60.68
2023-10-18T09:37:01.826Z,60.16
2023-10-18T09:39:30.167Z,59.87
2023-10-18T09:41:59.760Z,59.36
2023-10-18T09:44:26.805Z,58.42
2023-10-18T09:46:54.893Z,58.10
2023-10-18T09:49:23.731Z,57.88
2023-10-18T09:51:52.908Z,57.75
2023-10-18T09:54:20.859Z,58.39
2023-10-18T09:56:48.592Z,57.88
2023-10-18T09:59:21.090Z,57.17
2023-10-18T10:01:48.770Z,57.91
2023-10-18T10:04:17.025Z,57.47
2023-10-18T10:06:44.860Z,57.42
2023-10-18T10:09:12.412Z,57.44
2023-10-18T10:11:41.125Z,57.65
2023-10-18T10:14:08.364Z,57.65
2023-10-18T10:16:43.852Z,57.40
2023-10-18T10:19:13.604Z,56.99
2023-10-18T10:21:43.256Z,57.35
2023-10-18T10:24:10.796Z,57.40
2023-10-18T10:26:38.406Z,57.40
2023-10-18T10:29:06.065Z,57.48
2023-10-18T10:31:55.011Z,57.23
2023-10-18T10:34:25.204Z,57.49
2023-10-18T10:36:53.231Z,57.96
2023-10-18T10:39:25.776Z,58.35
2023-10-18T10:41:54.848Z,58.19
2023-10-18T10:44:24.721Z,58.63
2023-10-18T10:47:26.983Z,58.05
2023-10-18T10:49:54.128Z,58.03
2023-10-18T10:52:21.238Z,58.43
2023-10-18T10:54:51.408Z,58.33
2023-10-18T10:57:19.903Z,58.13
2023-10-18T10:59:53.542Z,58.28
2023-10-18T11:02:36.913Z,57.81
2023-10-18T11:05:04.326Z,57.40
2023-10-18T11:10:04.894Z,57.48
2023-10-18T11:12:33.103Z,56.96
2023-10-18T11:15:01.591Z,57.39
2023-10-18T11:17:31.320Z,57.99
2023-10-18T11:19:58.447Z,57.51
2023-10-18T11:22:26.004Z,56.45
2023-10-18T11:24:54.487Z,56.27
2023-10-18T11:27:23.498Z,56.09
2023-10-18T11:29:51.839Z,56.12
2023-10-18T11:32:19.081Z,56.49
2023-10-18T11:34:48.810Z,56.14
2023-10-18T11:37:16.451Z,56.26
2023-10-18T11:39:43.800Z,57.15
2023-10-18T11:42:10.957Z,56.72
2023-10-18T11:44:38.258Z,56.83
2023-10-18T11:47:06.583Z,57.27
2023-10-18T11:49:38.361Z,57.01
2023-10-18T11:52:14.075Z,56.69
2023-10-18T11:54:41.168Z,56.77
2023-10-18T11:57:24.946Z,57.39
2023-10-18T11:59:53.494Z,57.27
2023-10-18T12:02:20.674Z,57.86
2023-10-18T12:04:47.906Z,57.60
2023-10-18T12:07:17.707Z,57.29
2023-10-18T12:09:44.814Z,57.08
2023-10-18T12:12:12.286Z,56.84
2023-10-18T12:14:39.344Z,56.53
2023-10-18T12:17:06.443Z,56.37
2023-10-18T12:19:33.702Z,54.46
2023-10-18T12:22:00.811Z,54.11
2023-10-18T12:24:30.507Z,53.98
2023-10-18T12:26:57.491Z,55.51
2023-10-18T12:29:24.505Z,56.06
2023-10-18T12:31:51.635Z,55.31
2023-10-18T12:34:18.781Z,55.78
2023-10-18T12:36:45.813Z,55.75
2023-10-18T12:39:12.853Z,56.02
2023-10-18T12:41:42.477Z,56.49
2023-10-18T12:44:09.586Z,56.55
2023-10-18T12:46:36.800Z,57.12
2023-10-18T12:49:03.952Z,57.14
2023-10-18T12:51:30.915Z,57.30
2023-10-18T12:53:57.962Z,57.56
2023-10-18T12:56:25.124Z,57.84
2023-10-18T12:58:55.246Z,57.49
2023-10-18T13:01:22.904Z,58.06
2023-10-18T13:03:50.417Z,59.73
2023-10-18T13:06:17.508Z,61.28
2023-10-18T13:08:45.319Z,62.83
2023-10-18T13:11:14.229Z,63.52
2023-10-18T13:13:44.759Z,64.02
2023-10-18T13:16:14.491Z,63.91
2023-10-18T13:18:41.729Z,64.31
2023-10-18T13:21:09.174Z,64.50
2023-10-18T13:23:36.250Z,64.06
2023-10-18T13:26:03.441Z,63.93
2023-10-18T13:28:30.484Z,64.48
2023-10-18T13:31:01.272Z,64.71
2023-10-18T13:33:30.885Z,65.06
2023-10-18T13:35:57.868Z,64.45
2023-10-18T13:38:24.915Z,64.96
2023-10-18T13:40:51.918Z,65.00
2023-10-18T13:43:20.685Z,64.56
2023-10-18T13:45:57.140Z,64.66
2023-10-18T13:48:24.215Z,64.83
2023-10-18T13:50:54.028Z,64.27
2023-10-18T13:53:21.883Z,64.50
2023-10-18T13:55:48.992Z,64.98
2023-10-18T13:58:16.042Z,64.41
2023-10-18T14:00:43.060Z,63.82
2023-10-18T14:03:10.226Z,64.13
2023-10-18T14:05:39.363Z,64.71
2023-10-18T14:08:09.099Z,64.67
2023-10-18T14:10:36.196Z,64.05
2023-10-18T14:13:03.687Z,63.90
2023-10-18T14:15:31.100Z,64.46
2023-10-18T14:17:58.290Z,64.09
2023-10-18T14:20:26.770Z,64.31
2023-10-18T14:22:54.025Z,64.46
2023-10-18T14:25:24.103Z,65.14
2023-10-18T14:27:51.141Z,65.34
2023-10-18T14:30:18.494Z,65.87
2023-10-18T14:32:45.946Z,65.04
2023-10-18T14:35:13.712Z,65.47
2023-10-18T14:37:40.974Z,65.54
2023-10-18T14:40:08.969Z,65.77
2023-10-18T14:42:38.710Z,66.04
2023-10-18T14:45:10.204Z,66.08
2023-10-18T14:47:37.318Z,66.25
2023-10-18T14:50:05.169Z,66.32
2023-10-18T14:52:32.178Z,66.81
2023-10-18T14:54:59.196Z,66.56
2023-10-18T14:57:26.226Z,66.76
2023-10-18T14:59:56.049Z,66.97
2023-10-18T15:02:23.083Z,66.67
2023-10-18T15:04:50.096Z,66.36
2023-10-18T15:07:17.211Z,66.56
2023-10-18T15:09:44.451Z,66.36
2023-10-18T15:12:13.663Z,66.38
2023-10-18T15:14:42.254Z,65.96
2023-10-18T15:17:12.058Z,66.28
2023-10-18T15:19:39.187Z,65.07
2023-10-18T15:22:06.217Z,64.96
2023-10-18T15:24:33.955Z,66.66
2023-10-18T15:27:01.022Z,66.86
2023-10-18T15:29:28.102Z,67.09
2023-10-18T15:31:55.089Z,66.25
2023-10-18T15:34:24.749Z,66.26
2023-10-18T15:36:51.742Z,66.16
2023-10-18T15:39:18.716Z,66.96
2023-10-18T15:41:45.940Z,66.69
2023-10-18T15:44:12.971Z,67.10
2023-10-18T15:46:40.025Z,66.05
2023-10-18T15:49:07.164Z,65.58
2023-10-18T15:51:36.927Z,67.02
2023-10-18T15:54:06.724Z,68.43
2023-10-18T15:56:35.606Z,69.00
2023-10-18T15:59:03.065Z,69.54
2023-10-18T16:01:33.626Z,71.04
2023-10-18T16:04:06.807Z,72.09
2023-10-18T16:06:36.623Z,73.12
2023-10-18T16:09:03.997Z,74.24
2023-10-18T16:11:31.037Z,75.58
2023-10-18T16:13:58.081Z,74.93
2023-10-18T16:16:25.206Z,75.45
2023-10-18T16:18:52.219Z,75.17
2023-10-18T16:21:19.206Z,74.75
2023-10-18T16:23:48.757Z,74.69
2023-10-18T16:26:20.516Z,74.36
2023-10-18T16:28:48.204Z,74.56
2023-10-18T16:31:15.405Z,74.59
2023-10-18T16:33:43.696Z,75.01
2023-10-18T16:36:11.232Z,74.16
2023-10-18T16:38:38.272Z,74.75
2023-10-18T16:41:09.135Z,74.39
2023-10-18T16:43:37.978Z,74.48
2023-10-18T16:46:05.383Z,74.21
2023-10-18T16:48:32.499Z,73.73
2023-10-18T16:51:02.408Z,73.85
2023-10-18T16:53:30.653Z,73.93
2023-10-18T16:55:57.899Z,73.32
2023-10-18T16:58:27.608Z,73.25
2023-10-18T17:00:58.146Z,72.94
2023-10-18T17:03:25.676Z,72.71
2023-10-18T17:05:55.953Z,72.93
2023-10-18T17:08:23.353Z,72.97
2023-10-18T17:10:50.945Z,72.74
2023-10-18T17:13:17.938Z,72.68
2023-10-18T17:15:48.276Z,72.80
2023-10-18T17:18:15.414Z,72.57
2023-10-18T17:20:42.640Z,72.49
2023-10-18T17:23:09.733Z,71.81
2023-10-18T17:25:37.457Z,72.28
2023-10-18T17:28:05.407Z,72.75
2023-10-18T17:30:32.785Z,73.43
2023-10-18T17:33:02.947Z,73.69
2023-10-18T17:35:30.088Z,74.00
2023-10-18T17:37:57.106Z,74.30
2023-10-18T17:40:24.397Z,74.69
2023-10-18T17:42:51.985Z,76.03
2023-10-18T17:45:19.385Z,76.16
2023-10-18T17:47:47.801Z,77.65
2023-10-18T17:50:19.469Z,78.03
2023-10-18T17:52:48.684Z,78.74
2023-10-18T17:55:17.452Z,79.88
2023-10-18T17:57:45.017Z,80.17
2023-10-18T18:00:14.001Z,79.52
2023-10-18T18:02:41.187Z,79.46
2023-10-18T18:05:08.642Z,81.32
2023-10-18T18:07:38.252Z,81.64
2023-10-18T18:10:06.495Z,81.33
2023-10-18T18:12:33.608Z,80.92
2023-10-18T18:15:00.721Z,80.61
2023-10-18T18:17:28.019Z,80.51
2023-10-18T18:19:55.168Z,80.92
2023-10-18T18:22:22.140Z,81.08
2023-10-18T18:24:51.762Z,81.61
2023-10-18T18:27:18.750Z,81.36
2023-10-18T18:29:45.820Z,83.21
2023-10-18T18:32:12.962Z,83.38
2023-10-18T18:34:39.957Z,84.11
2023-10-18T18:37:07.094Z,84.84
2023-10-18T18:39:34.239Z,84.96
2023-10-18T18:42:04.119Z,86.37
2023-10-18T18:44:31.327Z,85.98
2023-10-18T18:46:58.409Z,85.68
2023-10-18T18:49:25.495Z,84.89
2023-10-18T18:51:52.498Z,85.52
2023-10-18T18:54:19.596Z,86.12
2023-10-18T18:56:46.732Z,86.06
2023-10-18T18:59:16.531Z,86.75
2023-10-18T19:01:44.547Z,87.20
2023-10-18T19:04:11.893Z,87.07
2023-10-18T19:06:39.091Z,88.48
2023-10-18T19:09:06.357Z,88.43
2023-10-18T19:11:33.499Z,88.38
2023-10-18T19:14:00.688Z,87.61
2023-10-18T19:16:31.262Z,86.37
2023-10-18T19:18:58.261Z,86.60
2023-10-18T19:21:25.322Z,87.02
2023-10-18T19:23:52.440Z,86.81
2023-10-18T19:26:19.837Z,86.65
2023-10-18T19:28:47.451Z,87.37
2023-10-18T19:31:16.135Z,87.35
2023-10-18T19:33:47.075Z,87.18
2023-10-18T19:36:14.245Z,86.68
2023-10-18T19:38:41.362Z,86.47
2023-10-18T19:41:08.740Z,87.20
2023-10-18T19:43:35.778Z,87.07
2023-10-18T19:46:03.095Z,87.05
2023-10-18T19:48:30.155Z,87.07
2023-10-18T19:50:59.766Z,86.23
2023-10-18T19:53:26.892Z,87.02
2023-10-18T19:55:53.940Z,86.90
2023-10-18T19:58:20.945Z,86.57
2023-10-18T20:00:48.397Z,86.86
2023-10-18T20:03:15.639Z,86.43
2023-10-18T20:05:42.985Z,86.68
2023-10-18T20:08:12.988Z,86.58
2023-10-18T20:10:40.180Z,86.02
2023-10-18T20:13:07.210Z,86.25
2023-10-18T20:15:34.931Z,86.03
2023-10-18T20:18:02.079Z,86.57
2023-10-18T20:20:29.648Z,86.39
2023-10-18T20:22:56.671Z,87.12
2023-10-18T20:25:26.333Z,87.58
2023-10-18T20:27:53.703Z,87.70
2023-10-18T20:30:20.689Z,87.54
2023-10-18T20:32:47.798Z,87.76
2023-10-18T20:35:15.539Z,88.28
2023-10-18T20:37:42.961Z,88.43
2023-10-18T20:40:11.204Z,88.54
2023-10-18T20:42:40.888Z,88.69
2023-10-18T20:45:09.021Z,88.36
2023-10-18T20:47:36.444Z,88.00
2023-10-18T20:50:04.118Z,87.53
2023-10-18T20:52:31.273Z,87.76
2023-10-18T20:54:58.304Z,87.69
2023-10-18T20:57:25.440Z,88.24
2023-10-18T20:59:55.184Z,88.00
2023-10-18T21:02:22.439Z,87.39
2023-10-18T21:04:50.021Z,87.63
2023-10-18T21:07:17.796Z,87.72
2023-10-18T21:09:45.017Z,87.34
2023-10-18T21:12:12.313Z,87.40
2023-10-18T21:14:39.412Z,87.15
2023-10-18T21:17:09.221Z,87.03
2023-10-18T21:19:36.345Z,86.52
2023-10-18T21:22:05.013Z,87.28
2023-10-18T21:24:32.236Z,87.16
2023-10-18T21:26:59.464Z,87.24
2023-10-18T21:29:26.678Z,87.36
2023-10-18T21:31:53.776Z,86.97
2023-10-18T21:34:23.484Z,87.12
2023-10-18T21:36:50.480Z,87.30
2023-10-18T21:39:17.475Z,87.23
2023-10-18T21:41:44.487Z,87.45
2023-10-18T21:44:11.553Z,87.58
2023-10-18T21:46:38.631Z,87.09
2023-10-18T21:49:05.945Z,87.68
2023-10-18T21:51:35.705Z,87.94
2023-10-18T21:54:02.715Z,88.13
2023-10-18T21:56:29.688Z,88.13
2023-10-18T21:58:56.746Z,88.77
2023-10-18T22:01:23.814Z,88.63
2023-10-18T22:03:50.906Z,89.02
2023-10-18T22:06:17.953Z,88.99
2023-10-18T22:08:47.612Z,88.68
2023-10-18T22:11:14.628Z,88.87
2023-10-18T22:13:41.717Z,88.98
2023-10-18T22:16:08.857Z,88.83
2023-10-18T22:18:35.897Z,88.74
2023-10-18T22:21:02.925Z,88.49
2023-10-18T22:23:30.889Z,88.83
2023-10-18T22:26:13.847Z,88.74
2023-10-18T22:28:41.993Z,88.49
2023-10-18T22:31:09.618Z,88.89
2023-10-18T22:33:36.873Z,89.32
2023-10-18T22:36:04.622Z,90.66
2023-10-18T22:38:31.644Z,91.18
2023-10-18T22:41:01.220Z,90.62
2023-10-18T22:43:28.293Z,89.82
2023-10-18T22:45:55.364Z,89.57
2023-10-18T22:48:22.936Z,89.99
2023-10-18T22:50:50.086Z,89.53
2023-10-18T22:53:17.115Z,89.70
2023-10-18T22:55:44.188Z,90.36
2023-10-18T22:58:13.957Z,90.37
2023-10-18T23:00:41.034Z,90.33
2023-10-18T23:03:09.830Z,90.93
2023-10-18T23:05:37.688Z,90.60
2023-10-18T23:08:05.489Z,90.61
2023-10-18T23:10:32.463Z,90.43
2023-10-18T23:12:59.431Z,90.27
2023-10-18T23:15:29.020Z,89.98
2023-10-18T23:17:55.978Z,90.68
2023-10-18T23:20:23.039Z,91.09
2023-10-18T23:22:50.106Z,90.81
2023-10-18T23:25:17.357Z,90.58
2023-10-18T23:27:44.404Z,91.03
2023-10-18T23:30:12.128Z,91.49
2023-10-18T23:32:41.873Z,91.74
2023-10-18T23:35:09.337Z,92.17
2023-10-18T23:37:36.335Z,92.27
2023-10-18T23:40:04.462Z,91.94
2023-10-18T23:42:31.425Z,91.77
2023-10-18T23:44:58.406Z,92.32
2023-10-18T23:47:27.385Z,92.52
2023-10-18T23:49:57.004Z,92.38
2023-10-18T23:52:24.076Z,92.14
2023-10-18T23:54:51.221Z,92.26
2023-10-18T23:57:18.241Z,92.28
2023-10-18T23:59:45.196Z,92.37
